createdAt,value
2023-03-29T00:00:40.256Z,1.98
2023-03-29T00:03:07.486Z,3.08
2023-03-29T00:05:35.101Z,2.65
2023-03-29T00:08:03.981Z,2.40
2023-03-29T00:10:32.160Z,2.40
2023-03-29T00:12:59.406Z,2.33
2023-03-29T00:15:26.861Z,2.42
2023-03-29T00:17:54.248Z,2.20
2023-03-29T00:20:21.458Z,1.77
2023-03-29T00:22:48.805Z,2.03
2023-03-29T00:25:16.491Z,2.63
2023-03-29T00:27:43.562Z,1.83
2023-03-29T00:30:11.053Z,2.13
2023-03-29T00:32:38.468Z,3.05
2023-03-29T00:35:06.412Z,2.20
2023-03-29T00:37:34.065Z,1.80
2023-03-29T00:40:01.506Z,2.50
2023-03-29T00:42:28.677Z,1.98
2023-03-29T00:44:58.581Z,2.30
2023-03-29T00:47:37.966Z,2.47
2023-03-29T00:50:17.121Z,3.00
2023-03-29T00:52:48.990Z,2.30
2023-03-29T00:57:46.446Z,2.90
2023-03-29T01:00:18.245Z,3.60
2023-03-29T01:02:51.098Z,3.38
2023-03-29T01:05:20.638Z,2.53
2023-03-29T01:07:53.754Z,3.50
2023-03-29T01:10:23.804Z,2.75
2023-03-29T01:12:54.311Z,3.17
2023-03-29T01:15:25.229Z,3.10
2023-03-29T01:17:53.864Z,2.33
2023-03-29T01:20:31.094Z,3.25
2023-03-29T01:22:58.768Z,3.05
2023-03-29T01:25:34.867Z,2.80
2023-03-29T01:28:08.652Z,3.58
2023-03-29T01:30:57.851Z,2.63
2023-03-29T01:33:26.400Z,2.90
2023-03-29T01:35:57.805Z,2.75
2023-03-29T01:38:28.553Z,2.20
2023-03-29T01:40:55.684Z,2.67
2023-03-29T01:43:33.066Z,2.28
2023-03-29T01:46:25.911Z,2.60
2023-03-29T01:49:01.599Z,1.85
2023-03-29T01:51:36.841Z,3.28
2023-03-29T01:54:06.902Z,4.28
2023-03-29T01:56:36.908Z,3.88
2023-03-29T01:59:09.280Z,2.95
2023-03-29T02:01:38.949Z,3.65
2023-03-29T02:04:10.447Z,3.85
2023-03-29T02:06:39.572Z,3.65
2023-03-29T02:09:07.146Z,2.70
2023-03-29T02:11:35.646Z,3.53
2023-03-29T02:14:02.869Z,2.53
2023-03-29T02:16:37.596Z,3.35
2023-03-29T02:19:05.313Z,2.85
2023-03-29T02:21:36.593Z,3.03
2023-03-29T02:24:06.488Z,2.72
2023-03-29T02:26:33.957Z,4.00
2023-03-29T02:29:01.471Z,3.92
2023-03-29T02:31:31.757Z,3.85
2023-03-29T02:34:02.746Z,3.40
2023-03-29T02:36:34.901Z,2.67
2023-03-29T02:39:05.783Z,3.50
2023-03-29T02:41:33.589Z,3.30
2023-03-29T02:44:01.678Z,3.75
2023-03-29T02:46:28.932Z,3.35
2023-03-29T02:48:57.863Z,3.95
2023-03-29T02:51:27.088Z,2.75
2023-03-29T02:54:00.155Z,1.73
2023-03-29T02:56:27.644Z,3.05
2023-03-29T02:58:54.944Z,2.53
2023-03-29T03:01:23.148Z,3.20
2023-03-29T03:03:51.888Z,3.58
2023-03-29T03:06:20.014Z,3.42
2023-03-29T03:08:47.144Z,3.17
2023-03-29T03:11:15.341Z,3.20
2023-03-29T03:13:42.460Z,3.05
2023-03-29T03:16:10.140Z,2.72
2023-03-29T03:18:37.999Z,4.32
2023-03-29T03:21:06.001Z,3.30
2023-03-29T03:23:33.177Z,3.05
2023-03-29T03:26:00.365Z,2.95
2023-03-29T03:28:28.379Z,2.95
2023-03-29T03:30:56.231Z,2.90
2023-03-29T03:33:24.077Z,4.43
2023-03-29T03:36:10.541Z,3.60
2023-03-29T03:38:38.333Z,3.95
2023-03-29T03:41:06.939Z,3.63
2023-03-29T03:43:34.945Z,3.58
2023-03-29T03:46:02.639Z,3.47
2023-03-29T03:48:31.540Z,3.83
2023-03-29T03:51:23.564Z,4.43
2023-03-29T03:53:51.704Z,3.60
2023-03-29T03:56:34.263Z,3.05
2023-03-29T03:59:16.408Z,2.47
2023-03-29T04:01:56.199Z,3.90
2023-03-29T04:04:25.439Z,2.83
2023-03-29T04:07:18.752Z,2.95
2023-03-29T04:10:13.842Z,4.28
2023-03-29T04:12:47.654Z,4.03
2023-03-29T04:15:17.748Z,3.47
2023-03-29T04:17:51.597Z,3.97
2023-03-29T04:22:56.334Z,3.67
2023-03-29T04:25:23.899Z,2.67
2023-03-29T04:28:27.313Z,3.78
2023-03-29T04:31:09.800Z,3.13
2023-03-29T04:33:55.991Z,3.10
2023-03-29T04:36:24.928Z,3.28
2023-03-29T04:38:52.890Z,4.15
2023-03-29T04:41:20.848Z,3.08
2023-03-29T04:43:48.038Z,3.35
2023-03-29T04:46:26.876Z,3.97
2023-03-29T04:49:13.389Z,3.80
2023-03-29T04:54:11.916Z,3.95
2023-03-29T04:56:57.022Z,4.32
2023-03-29T04:59:41.453Z,3.55
2023-03-29T05:02:32.161Z,3.92
2023-03-29T05:07:26.510Z,4.55
2023-03-29T05:09:53.678Z,3.22
2023-03-29T05:12:22.258Z,1.80
2023-03-29T05:14:53.116Z,4.40
2023-03-29T05:17:22.826Z,3.58
2023-03-29T05:19:51.392Z,4.03
2023-03-29T05:22:20.164Z,4.30
2023-03-29T05:24:47.366Z,3.67
2023-03-29T05:27:18.833Z,2.83
2023-03-29T05:29:57.984Z,3.65
2023-03-29T05:32:30.430Z,4.18
2023-03-29T05:34:57.886Z,5.10
2023-03-29T05:37:26.567Z,3.45
2023-03-29T05:40:05.658Z,3.50
2023-03-29T05:42:37.795Z,4.28
2023-03-29T05:45:08.656Z,3.17
2023-03-29T05:47:36.157Z,4.80
2023-03-29T05:50:03.651Z,3.60
2023-03-29T05:52:31.433Z,7.40
2023-03-29T05:54:58.712Z,6.32
2023-03-29T05:57:27.468Z,3.35
2023-03-29T05:59:55.082Z,2.28
2023-03-29T06:02:22.429Z,3.47
2023-03-29T06:04:53.937Z,4.18
2023-03-29T06:07:24.463Z,3.72
2023-03-29T06:10:30.136Z,4.95
2023-03-29T06:13:11.855Z,2.88
2023-03-29T06:15:39.160Z,4.20
2023-03-29T06:18:07.547Z,4.78
2023-03-29T06:20:36.450Z,3.63
2023-03-29T06:23:09.916Z,4.85
2023-03-29T06:25:37.954Z,3.92
2023-03-29T06:28:06.002Z,3.58
2023-03-29T06:30:34.567Z,2.88
2023-03-29T06:33:02.010Z,4.47
2023-03-29T06:35:48.815Z,3.67
2023-03-29T06:38:20.760Z,4.00
2023-03-29T06:41:08.017Z,4.55
2023-03-29T06:43:58.428Z,4.25
2023-03-29T06:46:33.213Z,3.83
2023-03-29T06:49:05.889Z,4.38
2023-03-29T06:52:01.205Z,2.97
2023-03-29T06:54:28.785Z,4.55
2023-03-29T06:57:05.720Z,4.38
2023-03-29T06:59:35.068Z,4.10
2023-03-29T07:02:13.135Z,4.57
2023-03-29T07:04:51.720Z,4.63
2023-03-29T07:07:27.358Z,4.13
2023-03-29T07:10:08.237Z,3.38
2023-03-29T07:12:59.544Z,4.78
2023-03-29T07:15:27.675Z,4.18
2023-03-29T07:18:19.814Z,4.60
2023-03-29T07:20:48.575Z,4.25
2023-03-29T07:23:15.780Z,4.15
2023-03-29T07:25:42.995Z,4.78
2023-03-29T07:28:11.116Z,3.47
2023-03-29T07:30:38.462Z,4.25
2023-03-29T07:33:14.529Z,3.63
2023-03-29T07:35:50.290Z,4.47
2023-03-29T07:38:18.559Z,5.43
2023-03-29T07:40:50.006Z,5.47
2023-03-29T07:43:42.513Z,4.97
2023-03-29T07:46:11.596Z,5.80
2023-03-29T07:48:39.852Z,5.28
2023-03-29T07:51:09.063Z,4.03
2023-03-29T07:53:44.732Z,6.55
2023-03-29T07:56:43.947Z,5.53
2023-03-29T07:59:31.042Z,4.20
2023-03-29T08:02:12.880Z,7.57
2023-03-29T08:04:44.506Z,5.40
2023-03-29T08:07:21.908Z,5.55
2023-03-29T08:10:22.210Z,7.03
2023-03-29T08:13:08.719Z,5.32
2023-03-29T08:15:50.282Z,5.47
2023-03-29T08:18:27.565Z,5.88
2023-03-29T08:20:55.024Z,5.90
2023-03-29T08:23:22.678Z,7.00
2023-03-29T08:26:16.202Z,7.55
2023-03-29T08:28:44.199Z,6.30
2023-03-29T08:31:13.090Z,6.70
2023-03-29T08:33:44.225Z,4.40
2023-03-29T08:36:37.759Z,4.38
2023-03-29T08:39:11.905Z,5.80
2023-03-29T08:41:57.396Z,4.07
2023-03-29T08:44:39.975Z,5.85
2023-03-29T08:49:45.107Z,7.05
2023-03-29T08:52:22.065Z,6.70
2023-03-29T08:54:52.126Z,4.50
2023-03-29T08:57:36.617Z,4.82
2023-03-29T09:00:14.469Z,6.50
2023-03-29T09:02:42.203Z,6.45
2023-03-29T09:05:18.307Z,6.90
2023-03-29T09:07:54.970Z,6.95
2023-03-29T09:10:25.039Z,7.15
2023-03-29T09:13:01.284Z,7.30
2023-03-29T09:15:31.293Z,5.82
2023-03-29T09:18:23.636Z,6.78
2023-03-29T09:20:56.928Z,6.20
2023-03-29T09:23:36.860Z,6.53
2023-03-29T09:26:38.283Z,5.72
2023-03-29T09:29:32.638Z,5.85
2023-03-29T09:32:02.311Z,7.55
2023-03-29T09:34:32.487Z,8.15
2023-03-29T09:37:09.598Z,6.70
2023-03-29T09:39:37.870Z,6.40
2023-03-29T09:42:11.848Z,5.68
2023-03-29T09:44:44.005Z,7.32
2023-03-29T09:47:16.189Z,7.88
2023-03-29T09:49:45.357Z,5.07
2023-03-29T09:52:14.749Z,6.40
2023-03-29T09:54:47.021Z,7.28
2023-03-29T09:57:36.896Z,7.38
2023-03-29T10:00:06.335Z,8.82
2023-03-29T10:02:41.360Z,5.05
2023-03-29T10:05:16.607Z,8.52
2023-03-29T10:07:55.627Z,7.53
2023-03-29T10:10:25.695Z,6.72
2023-03-29T10:12:55.666Z,8.40
2023-03-29T10:15:29.658Z,8.63
2023-03-29T10:18:02.141Z,8.35
2023-03-29T10:20:29.807Z,7.70
2023-03-29T10:22:58.429Z,8.15
2023-03-29T10:25:27.544Z,8.48
2023-03-29T10:27:56.197Z,7.35
2023-03-29T10:30:25.357Z,8.30
2023-03-29T10:32:55.288Z,8.45
2023-03-29T10:35:24.943Z,7.53
2023-03-29T10:37:53.378Z,6.55
2023-03-29T10:40:22.718Z,6.22
2023-03-29T10:42:51.915Z,8.40
2023-03-29T10:45:21.708Z,9.32
2023-03-29T10:47:49.319Z,9.82
2023-03-29T10:50:17.230Z,9.05
2023-03-29T10:52:44.545Z,9.80
2023-03-29T10:55:14.974Z,7.47
2023-03-29T10:57:45.288Z,8.75
2023-03-29T11:00:23.358Z,9.02
2023-03-29T11:03:09.768Z,7.90
2023-03-29T11:05:46.848Z,11.23
2023-03-29T11:08:14.921Z,8.70
2023-03-29T11:10:51.553Z,8.07
2023-03-29T11:13:18.744Z,8.48
2023-03-29T11:16:10.868Z,7.65
2023-03-29T11:18:47.751Z,7.05
2023-03-29T11:21:33.929Z,7.90
2023-03-29T11:24:10.640Z,9.05
2023-03-29T11:26:52.290Z,9.90
2023-03-29T11:29:43.456Z,8.80
2023-03-29T11:32:15.398Z,8.02
2023-03-29T11:35:06.640Z,8.95
2023-03-29T11:37:46.296Z,8.25
2023-03-29T11:40:36.126Z,10.48
2023-03-29T11:43:06.613Z,7.95
2023-03-29T11:45:37.762Z,9.05
2023-03-29T11:48:07.681Z,13.68
2023-03-29T11:50:53.905Z,14.05
2023-03-29T11:53:24.282Z,8.70
2023-03-29T11:55:52.012Z,7.97
2023-03-29T11:58:19.170Z,10.50
2023-03-29T12:00:48.443Z,9.23
2023-03-29T12:03:37.229Z,8.23
2023-03-29T12:08:36.149Z,5.88
2023-03-29T12:11:07.244Z,9.27
2023-03-29T12:13:41.638Z,9.10
2023-03-29T12:16:19.937Z,8.77
2023-03-29T12:21:20.566Z,12.10
2023-03-29T12:23:48.885Z,11.02
2023-03-29T12:26:20.060Z,12.68
2023-03-29T12:29:07.189Z,11.98
2023-03-29T12:31:34.763Z,13.45
2023-03-29T12:34:10.108Z,6.82
2023-03-29T12:36:56.571Z,11.05
2023-03-29T12:39:44.015Z,10.60
2023-03-29T12:42:29.983Z,14.98
2023-03-29T12:45:39.002Z,11.77
2023-03-29T12:48:07.717Z,10.43
2023-03-29T12:50:37.487Z,12.20
2023-03-29T12:53:04.651Z,13.52
2023-03-29T12:55:33.737Z,11.95
2023-03-29T12:58:02.689Z,12.95
2023-03-29T13:00:42.599Z,13.57
2023-03-29T13:03:29.245Z,12.77
2023-03-29T13:06:01.415Z,13.00
2023-03-29T13:08:34.719Z,14.25
2023-03-29T13:11:02.590Z,12.10
2023-03-29T13:13:37.856Z,12.10
2023-03-29T13:16:25.878Z,10.30
2023-03-29T13:19:19.398Z,11.07
2023-03-29T13:22:06.258Z,7.43
2023-03-29T13:24:36.512Z,9.95
2023-03-29T13:29:38.061Z,10.80
2023-03-29T13:32:25.969Z,8.77
2023-03-29T13:34:56.566Z,9.48
2023-03-29T13:37:24.494Z,10.05
2023-03-29T13:39:53.066Z,9.73
2023-03-29T13:42:34.217Z,9.35
2023-03-29T13:45:16.263Z,9.95
2023-03-29T13:48:02.395Z,5.75
2023-03-29T13:50:54.068Z,8.90
2023-03-29T13:53:36.112Z,6.70
2023-03-29T13:56:06.091Z,6.55
2023-03-29T13:58:37.606Z,10.60
2023-03-29T14:01:17.922Z,7.65
2023-03-29T14:03:46.844Z,9.90
2023-03-29T14:06:16.006Z,9.60
2023-03-29T14:08:44.804Z,9.35
2023-03-29T14:11:18.525Z,10.35
2023-03-29T14:13:45.281Z,8.57
2023-03-29T14:16:13.974Z,9.32
2023-03-29T14:18:44.493Z,11.52
2023-03-29T14:21:14.600Z,11.85
2023-03-29T14:28:37.978Z,12.30
2023-03-29T14:31:05.280Z,11.30
2023-03-29T14:33:34.638Z,12.55
2023-03-29T14:36:06.538Z,10.35
2023-03-29T14:38:37.339Z,14.23
2023-03-29T14:41:05.066Z,12.75
2023-03-29T14:43:32.492Z,14.30
2023-03-29T14:46:07.471Z,15.32
2023-03-29T14:48:35.630Z,14.65
2023-03-29T14:51:03.028Z,14.63
2023-03-29T14:53:32.429Z,13.27
2023-03-29T14:55:59.943Z,14.05
2023-03-29T14:58:34.268Z,13.65
2023-03-29T15:01:17.256Z,13.23
2023-03-29T15:03:50.399Z,11.90
2023-03-29T15:06:17.816Z,12.95
2023-03-29T15:08:58.051Z,12.93
2023-03-29T15:11:31.619Z,11.52
2023-03-29T15:14:21.925Z,10.68
2023-03-29T15:16:51.440Z,10.43
2023-03-29T15:19:21.425Z,9.43
2023-03-29T15:21:51.466Z,9.50
2023-03-29T15:27:16.124Z,9.52
2023-03-29T15:29:46.908Z,9.85
2023-03-29T15:32:25.278Z,9.32
2023-03-29T15:35:03.670Z,11.25
2023-03-29T15:37:31.044Z,10.18
2023-03-29T15:39:58.387Z,9.45
2023-03-29T15:42:27.543Z,10.07
2023-03-29T15:44:57.450Z,8.88
2023-03-29T15:47:25.899Z,8.05
2023-03-29T15:49:53.120Z,8.10
2023-03-29T15:52:20.494Z,6.35
2023-03-29T15:54:47.636Z,10.82
2023-03-29T15:57:16.287Z,8.32
2023-03-29T15:59:44.263Z,7.70
2023-03-29T16:02:16.550Z,9.00
2023-03-29T16:04:43.891Z,7.47
2023-03-29T16:07:14.526Z,10.32
2023-03-29T16:09:42.109Z,10.32
2023-03-29T16:12:10.198Z,7.70
2023-03-29T16:14:37.589Z,9.82
2023-03-29T16:17:05.814Z,8.68
2023-03-29T16:19:33.902Z,13.93
2023-03-29T16:22:03.365Z,10.65
2023-03-29T16:24:32.705Z,9.13
2023-03-29T16:27:01.843Z,8.18
2023-03-29T16:29:29.741Z,6.63
2023-03-29T16:31:57.343Z,5.63
2023-03-29T16:34:26.734Z,6.45
2023-03-29T16:36:55.483Z,5.68
2023-03-29T16:39:22.740Z,5.75
2023-03-29T16:41:50.393Z,7.32
2023-03-29T16:44:23.849Z,5.97
2023-03-29T16:46:58.158Z,7.20
2023-03-29T16:49:25.456Z,5.95
2023-03-29T16:51:52.936Z,5.85
2023-03-29T16:54:20.343Z,5.78
2023-03-29T16:56:47.423Z,6.05
2023-03-29T16:59:17.429Z,4.55
2023-03-29T17:01:46.451Z,4.28
2023-03-29T17:04:13.741Z,4.82
2023-03-29T17:06:42.016Z,5.38
2023-03-29T17:09:11.154Z,5.20
2023-03-29T17:11:39.809Z,4.82
2023-03-29T17:14:07.236Z,4.25
2023-03-29T17:16:34.832Z,5.07
2023-03-29T17:19:02.656Z,5.13
2023-03-29T17:21:30.220Z,4.60
2023-03-29T17:23:57.415Z,4.70
2023-03-29T17:26:24.696Z,4.70
2023-03-29T17:28:52.914Z,4.93
2023-03-29T17:31:20.397Z,4.50
2023-03-29T17:33:52.016Z,4.97
2023-03-29T17:36:24.235Z,4.72
2023-03-29T17:38:51.971Z,4.97
2023-03-29T17:41:19.266Z,5.47
2023-03-29T17:43:47.944Z,5.30
2023-03-29T17:46:16.588Z,4.95
2023-03-29T17:48:43.324Z,5.00
2023-03-29T17:51:12.190Z,4.57
2023-03-29T17:53:39.327Z,5.22
2023-03-29T17:56:07.062Z,4.70
2023-03-29T17:58:34.181Z,4.80
2023-03-29T18:01:07.932Z,5.43
2023-03-29T18:03:35.457Z,4.93
2023-03-29T18:06:02.888Z,4.90
2023-03-29T18:08:31.339Z,4.15
2023-03-29T18:11:09.064Z,4.80
2023-03-29T18:13:36.001Z,4.30
2023-03-29T18:16:04.428Z,4.93
2023-03-29T18:18:32.729Z,4.40
2023-03-29T18:21:00.906Z,4.78
2023-03-29T18:23:28.455Z,4.32
2023-03-29T18:26:07.955Z,4.15
2023-03-29T18:28:37.745Z,4.38
2023-03-29T18:31:06.822Z,4.07
2023-03-29T18:33:37.107Z,4.43
2023-03-29T18:36:05.595Z,4.20
2023-03-29T18:38:35.259Z,5.50
2023-03-29T18:41:03.529Z,6.07
2023-03-29T18:43:31.891Z,4.70
2023-03-29T18:45:59.822Z,4.88
2023-03-29T18:48:27.620Z,5.13
2023-03-29T18:50:58.358Z,6.28
2023-03-29T18:53:26.361Z,5.88
2023-03-29T18:55:53.934Z,4.30
2023-03-29T18:58:24.105Z,4.63
2023-03-29T19:03:18.875Z,4.47
2023-03-29T19:05:47.162Z,4.88
2023-03-29T19:08:14.670Z,4.55
2023-03-29T19:10:42.024Z,4.97
2023-03-29T19:13:09.317Z,5.32
2023-03-29T19:15:36.536Z,4.85
2023-03-29T19:18:04.763Z,4.75
2023-03-29T19:20:31.950Z,4.47
2023-03-29T19:22:59.121Z,4.85
2023-03-29T19:25:26.453Z,4.97
2023-03-29T19:27:53.648Z,4.63
2023-03-29T19:30:23.480Z,4.50
2023-03-29T19:32:51.547Z,4.57
2023-03-29T19:35:19.144Z,5.45
2023-03-29T19:37:47.406Z,4.85
2023-03-29T19:40:15.204Z,5.65
2023-03-29T19:42:44.787Z,4.97
2023-03-29T19:45:12.538Z,5.82
2023-03-29T19:47:43.110Z,4.93
2023-03-29T19:50:12.392Z,4.93
2023-03-29T19:52:39.684Z,8.30
2023-03-29T19:55:07.459Z,6.50
2023-03-29T19:57:35.003Z,6.30
2023-03-29T20:00:04.467Z,4.97
2023-03-29T20:02:39.356Z,5.20
2023-03-29T20:05:07.362Z,4.70
2023-03-29T20:07:34.498Z,5.32
2023-03-29T20:10:01.758Z,7.75
2023-03-29T20:12:30.150Z,5.60
2023-03-29T20:14:57.792Z,9.18
2023-03-29T20:17:25.173Z,5.93
2023-03-29T20:19:54.238Z,5.97
2023-03-29T20:22:21.451Z,9.40
2023-03-29T20:24:49.840Z,5.70
2023-03-29T20:27:17.049Z,5.10
2023-03-29T20:29:44.670Z,5.63
2023-03-29T20:32:12.101Z,6.22
2023-03-29T20:34:39.742Z,4.95
2023-03-29T20:37:07.405Z,5.45
2023-03-29T20:39:34.678Z,4.97
2023-03-29T20:42:02.008Z,5.30
2023-03-29T20:44:29.604Z,4.95
2023-03-29T20:47:04.942Z,5.15
2023-03-29T20:49:37.600Z,5.47
2023-03-29T20:52:08.564Z,4.40
2023-03-29T20:54:37.309Z,3.92
2023-03-29T20:57:05.044Z,4.82
2023-03-29T20:59:32.567Z,5.65
2023-03-29T21:02:00.270Z,4.80
2023-03-29T21:04:28.171Z,5.35
2023-03-29T21:06:56.187Z,4.95
2023-03-29T21:09:25.462Z,4.40
2023-03-29T21:11:52.835Z,4.45
2023-03-29T21:14:22.879Z,5.28
2023-03-29T21:16:50.483Z,5.35
2023-03-29T21:19:17.981Z,5.45
2023-03-29T21:21:46.918Z,4.55
2023-03-29T21:24:14.167Z,5.25
2023-03-29T21:26:41.800Z,4.20
2023-03-29T21:29:08.983Z,5.38
2023-03-29T21:31:36.211Z,5.03
2023-03-29T21:34:03.499Z,5.88
2023-03-29T21:36:31.170Z,5.72
2023-03-29T21:38:58.325Z,5.05
2023-03-29T21:41:26.358Z,5.82
2023-03-29T21:43:53.681Z,5.47
2023-03-29T21:46:21.024Z,4.93
2023-03-29T21:48:48.495Z,4.88
2023-03-29T21:51:15.994Z,3.95
2023-03-29T21:53:43.212Z,3.95
2023-03-29T21:56:12.083Z,5.18
2023-03-29T21:58:39.390Z,4.28
2023-03-29T22:01:09.897Z,4.40
2023-03-29T22:03:37.942Z,5.20
2023-03-29T22:06:08.610Z,5.60
2023-03-29T22:08:39.021Z,4.70
2023-03-29T22:11:08.232Z,4.57
2023-03-29T22:13:35.961Z,4.95
2023-03-29T22:16:04.081Z,4.90
2023-03-29T22:18:42.623Z,4.68
2023-03-29T22:21:10.944Z,5.32
2023-03-29T22:23:38.077Z,5.78
2023-03-29T22:26:06.950Z,4.57
2023-03-29T22:28:35.545Z,4.72
2023-03-29T22:31:10.170Z,4.90
2023-03-29T22:33:37.892Z,6.18
2023-03-29T22:36:13.089Z,4.57
2023-03-29T22:38:40.478Z,4.38
2023-03-29T22:41:08.278Z,5.55
2023-03-29T22:43:36.750Z,4.55
2023-03-29T22:46:08.241Z,4.45
2023-03-29T22:48:35.632Z,4.80
2023-03-29T22:51:02.533Z,4.35
2023-03-29T22:53:29.922Z,4.45
2023-03-29T22:55:57.184Z,3.70
2023-03-29T22:58:25.669Z,4.88
2023-03-29T23:00:53.320Z,4.65
2023-03-29T23:03:20.673Z,3.60
2023-03-29T23:05:55.773Z,4.78
2023-03-29T23:08:23.449Z,4.85
2023-03-29T23:10:50.601Z,3.60
2023-03-29T23:13:24.173Z,3.90
2023-03-29T23:15:51.957Z,4.38
2023-03-29T23:18:21.148Z,3.92
2023-03-29T23:20:49.209Z,5.20
2023-03-29T23:23:17.273Z,4.35
2023-03-29T23:25:48.273Z,3.40
2023-03-29T23:28:21.459Z,5.00
2023-03-29T23:31:00.241Z,5.10
2023-03-29T23:33:28.236Z,3.75
2023-03-29T23:35:55.721Z,4.28
2023-03-29T23:38:24.345Z,4.68
2023-03-29T23:40:58.744Z,3.60
2023-03-29T23:43:27.271Z,3.72
2023-03-29T23:45:57.817Z,3.95
2023-03-29T23:48:26.092Z,3.90
2023-03-29T23:50:53.626Z,3.97
2023-03-29T23:53:21.065Z,3.03
2023-03-29T23:55:49.205Z,3.65
2023-03-29T23:58:16.672Z,3.35
